Terminal Aerodrome Forecast
Issued by NWS

Current Version | Previous Version | Text Only | Print | Product List | Glossary On
Versions: 1 2 3 4 5 6 7 8 9 10 11 12 13 14 15 16 17 18 19 20 21 22
000
FTUS43 KGRR 302300
TAFAZO
TAF
KAZO 302340Z 3100/3124 28008KT P6SM BKN040
     FM310900 29011KT 5SM -SHRA BR OVC015
     FM311200 32010G20KT 2SM -RA BR OVC010
     FM311600 36014G22KT 3SM -RASN BR OVC015
     FM311800 01020G32KT 1SM -SN BR OVC009
     FM312000 01020G32KT P6SM VCSH OVC025=

USA.gov is the U.S. government's official web portal to all federal, state and local government web resources and services.